createdAt,value
2023-01-07T00:01:41.933Z,2.31
2023-01-07T00:04:11.964Z,2.38
2023-01-07T00:06:39.999Z,2.26
2023-01-07T00:09:08.256Z,2.24
2023-01-07T00:11:37.470Z,2.27
2023-01-07T00:14:05.697Z,2.22
2023-01-07T00:16:34.323Z,2.22
2023-01-07T00:19:02.461Z,2.35
2023-01-07T00:21:29.897Z,2.40
2023-01-07T00:24:01.619Z,2.42
2023-01-07T00:26:32.658Z,2.30
2023-01-07T00:29:00.136Z,2.27
2023-01-07T00:31:32.306Z,2.33
2023-01-07T00:33:59.375Z,2.34
2023-01-07T00:36:31.396Z,2.29
2023-01-07T00:39:30.354Z,2.22
2023-01-07T00:42:15.157Z,2.28
2023-01-07T00:44:41.749Z,2.22
2023-01-07T00:47:08.324Z,2.18
2023-01-07T00:49:34.953Z,2.01
2023-01-07T00:52:01.522Z,1.91
2023-01-07T00:54:28.231Z,1.80
2023-01-07T00:56:54.766Z,1.66
2023-01-07T00:59:21.357Z,1.57
2023-01-07T01:01:47.998Z,1.63
2023-01-07T01:04:15.165Z,1.60
2023-01-07T01:06:41.724Z,1.63
2023-01-07T01:09:08.903Z,1.49
2023-01-07T01:11:35.460Z,1.38
2023-01-07T01:14:02.059Z,1.50
2023-01-07T01:16:28.693Z,1.61
2023-01-07T01:18:55.273Z,1.46
2023-01-07T01:21:21.905Z,1.58
2023-01-07T01:23:48.494Z,1.52
2023-01-07T01:26:17.246Z,1.46
2023-01-07T01:28:44.951Z,1.43
2023-01-07T01:31:11.969Z,1.45
2023-01-07T01:33:38.780Z,1.53
2023-01-07T01:36:08.087Z,1.49
2023-01-07T01:38:34.651Z,1.41
2023-01-07T01:41:01.364Z,1.33
2023-01-07T01:43:35.113Z,1.38
2023-01-07T01:46:34.287Z,1.44
2023-01-07T01:49:08.085Z,1.44
2023-01-07T01:51:38.933Z,1.36
2023-01-07T01:54:08.923Z,1.29
2023-01-07T01:56:40.748Z,1.20
2023-01-07T01:59:12.137Z,1.17
2023-01-07T02:01:39.016Z,1.21
2023-01-07T02:04:10.562Z,1.18
2023-01-07T02:06:50.793Z,1.23
2023-01-07T02:09:17.321Z,1.19
2023-01-07T02:12:10.533Z,1.09
2023-01-07T02:15:03.818Z,1.15
2023-01-07T02:17:59.973Z,1.13
2023-01-07T02:20:44.893Z,1.14
2023-01-07T02:23:32.999Z,0.97
2023-01-07T02:26:37.320Z,0.96
2023-01-07T02:29:09.659Z,0.95
2023-01-07T02:32:02.385Z,0.87
2023-01-07T02:34:43.632Z,0.74
2023-01-07T02:37:43.771Z,0.60
2023-01-07T02:40:22.199Z,0.55
2023-01-07T02:42:57.893Z,0.53
2023-01-07T02:45:30.468Z,0.66
2023-01-07T02:48:01.513Z,0.70
2023-01-07T02:50:28.110Z,0.66
2023-01-07T02:52:54.697Z,0.64
2023-01-07T02:55:31.284Z,0.59
2023-01-07T02:58:19.311Z,0.60
2023-01-07T03:01:23.234Z,0.52
2023-01-07T03:04:04.783Z,0.59
2023-01-07T03:06:46.401Z,0.55
2023-01-07T03:09:25.053Z,0.66
2023-01-07T03:12:18.008Z,0.63
2023-01-07T03:14:48.177Z,0.61
2023-01-07T03:17:20.539Z,0.63
2023-01-07T03:19:57.746Z,0.56
2023-01-07T03:22:28.356Z,0.61
2023-01-07T03:24:58.087Z,0.60
2023-01-07T03:27:27.608Z,0.50
2023-01-07T03:29:56.073Z,0.41
2023-01-07T03:32:41.195Z,0.43
2023-01-07T03:35:08.709Z,0.36
2023-01-07T03:37:35.473Z,0.23
2023-01-07T03:40:06.597Z,0.17
2023-01-07T03:42:42.072Z,0.21
2023-01-07T03:45:17.682Z,0.14
2023-01-07T03:47:47.907Z,0.22
2023-01-07T03:50:15.739Z,0.24
2023-01-07T03:52:42.725Z,0.24
2023-01-07T03:55:10.745Z,0.32
2023-01-07T03:57:37.875Z,0.25
2023-01-07T04:00:06.606Z,0.25
2023-01-07T04:02:33.374Z,0.27
2023-01-07T04:04:59.954Z,0.30
2023-01-07T04:07:26.513Z,0.13
2023-01-07T04:09:53.034Z,0.04
2023-01-07T04:12:19.673Z,-0.03
2023-01-07T04:14:46.239Z,-0.08
2023-01-07T04:17:12.800Z,-0.12
2023-01-07T04:19:39.927Z,-0.14
2023-01-07T04:22:07.821Z,-0.14
2023-01-07T04:24:34.417Z,-0.08
2023-01-07T04:27:01.119Z,-0.07
2023-01-07T04:29:27.720Z,-0.02
2023-01-07T04:31:54.320Z,-0.07
2023-01-07T04:34:20.872Z,-0.21
2023-01-07T04:36:47.857Z,-0.10
2023-01-07T04:39:14.732Z,-0.16
2023-01-07T04:41:41.352Z,-0.16
2023-01-07T04:44:08.055Z,-0.12
2023-01-07T04:46:34.740Z,-0.04
2023-01-07T04:49:01.482Z,-0.02
2023-01-07T04:51:28.105Z,-0.04
2023-01-07T04:53:56.556Z,-0.15
2023-01-07T04:56:23.280Z,-0.16
2023-01-07T04:58:49.860Z,-0.32
2023-01-07T05:01:16.519Z,-0.46
2023-01-07T05:03:43.159Z,-0.60
2023-01-07T05:06:10.113Z,-0.56
2023-01-07T05:08:36.669Z,-0.53
2023-01-07T05:11:04.832Z,-0.57
2023-01-07T05:13:32.044Z,-0.53
2023-01-07T05:15:58.525Z,-0.56
2023-01-07T05:18:25.052Z,-0.52
2023-01-07T05:20:51.619Z,-0.47
2023-01-07T05:23:18.163Z,-0.60
2023-01-07T05:25:44.681Z,-0.55
2023-01-07T05:28:12.269Z,-0.49
2023-01-07T05:30:39.550Z,-0.49
2023-01-07T05:33:07.361Z,-0.48
2023-01-07T05:35:34.935Z,-0.49
2023-01-07T05:38:01.533Z,-0.47
2023-01-07T05:40:28.174Z,-0.40
2023-01-07T05:42:54.777Z,-0.41
2023-01-07T05:45:21.887Z,-0.42
2023-01-07T05:47:49.256Z,-0.46
2023-01-07T05:50:15.989Z,-0.39
2023-01-07T05:52:42.559Z,-0.52
2023-01-07T05:55:09.501Z,-0.62
2023-01-07T05:57:36.076Z,-0.58
2023-01-07T06:00:03.170Z,-0.51
2023-01-07T06:02:29.727Z,-0.53
2023-01-07T06:04:56.299Z,-0.55
2023-01-07T06:07:22.877Z,-0.53
2023-01-07T06:09:49.435Z,-0.61
2023-01-07T06:12:16.038Z,-0.64
2023-01-07T06:14:42.637Z,-0.62
2023-01-07T06:17:09.260Z,-0.67
2023-01-07T06:19:35.796Z,-0.70
2023-01-07T06:22:02.395Z,-0.75
2023-01-07T06:24:28.983Z,-0.82
2023-01-07T06:26:55.570Z,-0.80
2023-01-07T06:29:22.138Z,-0.71
2023-01-07T06:31:48.727Z,-0.85
2023-01-07T06:34:15.419Z,-0.63
2023-01-07T06:36:41.948Z,-0.55
2023-01-07T06:39:08.534Z,-0.35
2023-01-07T06:41:35.131Z,-0.20
2023-01-07T06:44:01.706Z,-0.29
2023-01-07T06:46:28.438Z,-0.30
2023-01-07T06:48:55.486Z,-0.26
2023-01-07T06:51:23.290Z,-0.24
2023-01-07T06:53:49.883Z,-0.17
2023-01-07T06:56:16.494Z,-0.16
2023-01-07T06:58:43.066Z,-0.05
2023-01-07T07:01:09.809Z,-0.07
2023-01-07T07:03:36.473Z,-0.07
2023-01-07T07:06:03.344Z,-0.11
2023-01-07T07:08:29.963Z,0.04
2023-01-07T07:10:56.533Z,0.07
2023-01-07T07:13:23.096Z,0.03
2023-01-07T07:15:49.962Z,-0.12
2023-01-07T07:18:18.253Z,-0.06
2023-01-07T07:20:48.444Z,0.14
2023-01-07T07:23:15.139Z,0.23
2023-01-07T07:25:42.450Z,0.24
2023-01-07T07:28:09.053Z,0.33
2023-01-07T07:30:46.188Z,0.46
2023-01-07T07:33:15.119Z,0.56
2023-01-07T07:35:42.051Z,0.64
2023-01-07T07:38:08.648Z,0.70
2023-01-07T07:40:35.264Z,0.79
2023-01-07T07:43:11.051Z,0.89
2023-01-07T07:45:40.811Z,0.89
2023-01-07T07:48:08.566Z,0.92
2023-01-07T07:50:35.817Z,1.06
2023-01-07T07:53:02.310Z,1.18
2023-01-07T07:55:28.969Z,1.11
2023-01-07T07:57:57.288Z,1.19
2023-01-07T08:00:24.294Z,1.34
2023-01-07T08:02:51.142Z,1.35
2023-01-07T08:05:17.941Z,1.39
2023-01-07T08:07:44.521Z,1.52
2023-01-07T08:10:11.141Z,1.66
2023-01-07T08:12:38.800Z,1.76
2023-01-07T08:15:07.097Z,1.87
2023-01-07T08:17:34.046Z,1.91
2023-01-07T08:20:00.643Z,1.93
2023-01-07T08:22:27.265Z,1.97
2023-01-07T08:24:53.827Z,2.07
2023-01-07T08:27:21.087Z,2.10
2023-01-07T08:29:47.572Z,2.14
2023-01-07T08:32:14.195Z,2.22
2023-01-07T08:34:40.789Z,2.26
2023-01-07T08:37:07.389Z,2.44
2023-01-07T08:39:33.991Z,2.56
2023-01-07T08:42:00.608Z,2.65
2023-01-07T08:44:27.268Z,2.78
2023-01-07T08:46:54.546Z,2.86
2023-01-07T08:49:21.119Z,3.10
2023-01-07T08:51:47.785Z,3.14
2023-01-07T08:54:14.522Z,3.13
2023-01-07T08:56:41.133Z,3.13
2023-01-07T08:59:07.735Z,3.22
2023-01-07T09:01:34.508Z,3.41
2023-01-07T09:04:01.066Z,4.03
2023-01-07T09:06:27.672Z,6.36
2023-01-07T09:08:54.255Z,9.46
2023-01-07T09:11:20.875Z,11.26
2023-01-07T09:13:47.544Z,12.59
2023-01-07T09:16:14.176Z,13.59
2023-01-07T09:18:40.807Z,14.39
2023-01-07T09:21:07.386Z,12.63
2023-01-07T09:23:34.045Z,14.14
2023-01-07T09:26:00.667Z,13.99
2023-01-07T09:28:27.270Z,13.66
2023-01-07T09:30:56.699Z,12.39
2023-01-07T09:33:23.779Z,11.59
2023-01-07T09:35:50.326Z,10.21
2023-01-07T09:38:16.869Z,9.58
2023-01-07T09:40:45.165Z,8.92
2023-01-07T09:43:17.898Z,8.41
2023-01-07T09:45:49.548Z,8.15
2023-01-07T09:48:30.203Z,8.04
2023-01-07T09:51:06.019Z,7.90
2023-01-07T09:53:50.252Z,7.89
2023-01-07T09:56:25.119Z,8.16
2023-01-07T09:58:51.957Z,8.09
2023-01-07T10:01:25.138Z,8.20
2023-01-07T10:04:16.108Z,8.14
2023-01-07T10:07:00.397Z,8.24
2023-01-07T10:09:57.896Z,8.42
2023-01-07T10:12:42.711Z,8.40
2023-01-07T10:15:27.228Z,8.14
2023-01-07T10:17:59.844Z,8.14
2023-01-07T10:20:52.668Z,8.42
2023-01-07T10:23:51.800Z,8.45
2023-01-07T10:26:38.631Z,8.28
2023-01-07T10:29:12.358Z,8.45
2023-01-07T10:31:39.796Z,8.76
2023-01-07T10:34:14.423Z,8.73
2023-01-07T10:37:00.838Z,8.65
2023-01-07T10:39:50.777Z,8.72
2023-01-07T10:42:29.863Z,8.75
2023-01-07T10:45:40.811Z,9.06
2023-01-07T10:48:22.784Z,9.16
2023-01-07T10:51:02.389Z,9.12
2023-01-07T10:53:31.861Z,9.27
2023-01-07T10:56:20.392Z,9.49
2023-01-07T10:58:49.318Z,9.66
2023-01-07T11:01:22.896Z,9.70
2023-01-07T11:03:55.235Z,9.70
2023-01-07T11:06:36.554Z,9.76
2023-01-07T11:09:07.887Z,9.73
2023-01-07T11:11:35.363Z,9.91
2023-01-07T11:14:12.933Z,10.00
2023-01-07T11:17:06.310Z,9.85
2023-01-07T11:19:45.883Z,10.03
2023-01-07T11:22:34.046Z,10.12
2023-01-07T11:25:02.476Z,10.08
2023-01-07T11:27:32.298Z,10.18
2023-01-07T11:30:37.937Z,10.45
2023-01-07T11:33:13.855Z,10.52
2023-01-07T11:35:51.513Z,10.56
2023-01-07T11:38:44.570Z,10.56
2023-01-07T11:41:26.188Z,10.51
2023-01-07T11:43:54.668Z,10.57
2023-01-07T11:46:25.866Z,10.64
2023-01-07T11:49:01.050Z,10.58
2023-01-07T11:51:39.796Z,10.76
2023-01-07T11:54:21.926Z,10.89
2023-01-07T11:56:48.636Z,11.07
2023-01-07T11:59:26.768Z,11.26
2023-01-07T12:01:57.053Z,11.31
2023-01-07T12:04:28.712Z,11.39
2023-01-07T12:07:01.921Z,11.27
2023-01-07T12:09:31.461Z,11.46
2023-01-07T12:12:34.533Z,11.48
2023-01-07T12:15:05.225Z,11.61
2023-01-07T12:17:35.239Z,11.71
2023-01-07T12:20:28.027Z,11.87
2023-01-07T12:22:58.434Z,11.90
2023-01-07T12:25:46.814Z,12.05
2023-01-07T12:28:19.747Z,12.07
2023-01-07T12:30:52.204Z,12.23
2023-01-07T12:33:38.996Z,12.24
2023-01-07T12:36:15.744Z,12.37
2023-01-07T12:38:49.580Z,12.41
2023-01-07T12:41:27.239Z,12.26
2023-01-07T12:44:09.543Z,12.14
2023-01-07T12:46:41.820Z,12.12
2023-01-07T12:49:34.703Z,12.15
2023-01-07T12:52:12.016Z,12.25
2023-01-07T12:54:54.566Z,12.29
2023-01-07T12:57:38.001Z,12.49
2023-01-07T13:00:42.112Z,12.42
2023-01-07T13:03:45.710Z,12.02
2023-01-07T13:06:22.113Z,12.05
2023-01-07T13:08:58.851Z,12.10
2023-01-07T13:11:52.984Z,11.96
2023-01-07T13:14:26.057Z,11.96
2023-01-07T13:16:56.094Z,12.02
2023-01-07T13:19:22.737Z,11.99
2023-01-07T13:21:50.219Z,12.07
2023-01-07T13:24:56.281Z,11.97
2023-01-07T13:27:50.802Z,11.98
2023-01-07T13:30:27.713Z,12.01
2023-01-07T13:33:05.500Z,11.91
2023-01-07T13:35:42.601Z,11.84
2023-01-07T13:38:40.002Z,11.98
2023-01-07T13:41:59.275Z,12.00
2023-01-07T13:44:54.802Z,12.01
2023-01-07T13:47:25.591Z,11.77
2023-01-07T13:50:01.667Z,11.78
2023-01-07T13:52:31.711Z,11.76
2023-01-07T13:55:22.480Z,11.61
2023-01-07T13:57:49.097Z,11.48
2023-01-07T14:00:39.463Z,11.37
2023-01-07T14:03:53.515Z,11.32
2023-01-07T14:06:20.338Z,10.77
2023-01-07T14:08:50.675Z,10.37
2023-01-07T14:11:42.272Z,10.27
2023-01-07T14:14:26.935Z,10.23
2023-01-07T14:16:59.213Z,10.18
2023-01-07T14:19:53.832Z,10.03
2023-01-07T14:22:20.301Z,9.69
2023-01-07T14:24:55.866Z,9.64
2023-01-07T14:27:47.196Z,9.42
2023-01-07T14:30:51.156Z,9.18
2023-01-07T14:33:19.507Z,9.01
2023-01-07T14:35:56.433Z,8.76
2023-01-07T14:38:32.237Z,8.56
2023-01-07T14:41:05.867Z,8.41
2023-01-07T14:43:46.027Z,8.18
2023-01-07T14:46:24.829Z,7.87
2023-01-07T14:49:03.633Z,7.79
2023-01-07T14:52:01.846Z,7.66
2023-01-07T14:54:59.544Z,7.40
2023-01-07T14:57:44.233Z,6.95
2023-01-07T15:00:54.877Z,6.67
2023-01-07T15:03:24.697Z,6.70
2023-01-07T15:06:09.846Z,6.68
2023-01-07T15:09:12.726Z,6.49
2023-01-07T15:12:00.526Z,6.37
2023-01-07T15:14:49.056Z,6.42
2023-01-07T15:17:16.903Z,6.50
2023-01-07T15:19:44.382Z,6.56
2023-01-07T15:22:25.939Z,6.59
2023-01-07T15:25:09.380Z,6.64
2023-01-07T15:27:50.796Z,6.56
2023-01-07T15:30:32.585Z,6.44
2023-01-07T15:33:20.707Z,6.25
2023-01-07T15:35:47.521Z,6.16
2023-01-07T15:38:27.649Z,6.13
2023-01-07T15:40:56.533Z,6.07
2023-01-07T15:43:26.768Z,6.11
2023-01-07T15:46:08.056Z,6.12
2023-01-07T15:48:34.646Z,6.03
2023-01-07T15:51:01.303Z,6.00
2023-01-07T15:53:29.597Z,5.90
2023-01-07T15:56:02.045Z,5.77
2023-01-07T15:58:44.970Z,5.72
2023-01-07T16:01:17.362Z,5.52
2023-01-07T16:03:44.777Z,5.38
2023-01-07T16:06:26.517Z,4.97
2023-01-07T16:08:53.240Z,4.67
2023-01-07T16:11:25.873Z,4.43
2023-01-07T16:13:57.506Z,4.37
2023-01-07T16:16:25.034Z,4.40
2023-01-07T16:18:59.717Z,4.45
2023-01-07T16:21:35.239Z,4.45
2023-01-07T16:24:01.928Z,4.30
2023-01-07T16:26:37.615Z,4.34
2023-01-07T16:29:16.783Z,4.29
2023-01-07T16:31:44.054Z,4.25
2023-01-07T16:34:33.824Z,4.27
2023-01-07T16:37:02.627Z,4.13
2023-01-07T16:39:39.299Z,4.05
2023-01-07T16:42:23.007Z,4.00
2023-01-07T16:44:52.645Z,4.09
2023-01-07T16:47:24.845Z,4.10
2023-01-07T16:49:57.120Z,3.98
2023-01-07T16:52:31.590Z,3.75
2023-01-07T16:54:58.259Z,3.60
2023-01-07T16:57:30.644Z,3.54
2023-01-07T16:59:58.995Z,3.57
2023-01-07T17:02:32.721Z,3.59
2023-01-07T17:05:22.846Z,3.62
2023-01-07T17:07:54.887Z,3.49
2023-01-07T17:10:27.416Z,3.31
2023-01-07T17:13:15.759Z,3.22
2023-01-07T17:15:43.689Z,3.13
2023-01-07T17:18:13.093Z,3.05
2023-01-07T17:20:51.837Z,2.96
2023-01-07T17:23:27.620Z,2.88
2023-01-07T17:26:03.468Z,2.83
2023-01-07T17:28:32.983Z,2.60
2023-01-07T17:31:00.845Z,2.42
2023-01-07T17:33:27.715Z,2.48
2023-01-07T17:35:54.422Z,2.51
2023-01-07T17:38:21.127Z,2.55
2023-01-07T17:40:48.195Z,2.57
2023-01-07T17:43:35.387Z,2.56
2023-01-07T17:46:06.181Z,2.61
2023-01-07T17:48:33.398Z,2.66
2023-01-07T17:51:01.365Z,2.64
2023-01-07T17:53:34.057Z,2.69
2023-01-07T17:56:01.848Z,2.67
2023-01-07T17:58:33.691Z,2.61
2023-01-07T18:01:02.684Z,2.60
2023-01-07T18:03:29.445Z,2.49
2023-01-07T18:05:56.048Z,2.44
2023-01-07T18:08:22.604Z,2.31
2023-01-07T18:11:10.261Z,2.22
2023-01-07T18:13:36.885Z,2.18
2023-01-07T18:16:03.692Z,2.14
2023-01-07T18:18:30.307Z,2.14
2023-01-07T18:20:58.158Z,2.22
2023-01-07T18:23:25.052Z,2.24
2023-01-07T18:25:51.632Z,2.20
2023-01-07T18:28:18.159Z,2.13
2023-01-07T18:30:44.720Z,2.05
2023-01-07T18:33:11.860Z,2.02
2023-01-07T18:35:41.720Z,1.98
2023-01-07T18:38:13.323Z,1.90
2023-01-07T18:40:40.166Z,1.88
2023-01-07T18:43:07.367Z,1.84
2023-01-07T18:45:33.837Z,1.86
2023-01-07T18:48:00.408Z,1.79
2023-01-07T18:50:27.099Z,1.70
2023-01-07T18:52:53.678Z,1.70
2023-01-07T18:55:21.029Z,1.77
2023-01-07T18:57:47.671Z,1.90
2023-01-07T19:00:15.735Z,1.85
2023-01-07T19:02:42.330Z,1.87
2023-01-07T19:05:09.015Z,1.80
2023-01-07T19:07:36.215Z,1.76
2023-01-07T19:10:04.788Z,1.73
2023-01-07T19:12:31.387Z,1.75
2023-01-07T19:14:57.956Z,1.63
2023-01-07T19:17:24.599Z,1.44
2023-01-07T19:19:51.871Z,1.38
2023-01-07T19:22:18.506Z,1.39
2023-01-07T19:24:45.132Z,1.40
2023-01-07T19:27:12.064Z,1.41
2023-01-07T19:29:38.670Z,1.44
2023-01-07T19:32:05.636Z,1.36
2023-01-07T19:34:32.247Z,1.30
2023-01-07T19:36:58.748Z,1.27
2023-01-07T19:39:25.334Z,1.27
2023-01-07T19:41:52.030Z,1.31
2023-01-07T19:44:18.701Z,1.28
2023-01-07T19:46:45.228Z,1.22
2023-01-07T19:49:13.457Z,1.25
2023-01-07T19:51:41.979Z,1.00
2023-01-07T19:54:11.824Z,1.04
2023-01-07T19:56:40.195Z,1.09
2023-01-07T19:59:07.060Z,1.09
2023-01-07T20:01:33.877Z,1.09
2023-01-07T20:04:01.001Z,1.11
2023-01-07T20:06:29.953Z,1.23
2023-01-07T20:08:58.535Z,1.24
2023-01-07T20:11:25.397Z,1.24
2023-01-07T20:13:52.055Z,1.16
2023-01-07T20:16:23.449Z,1.06
2023-01-07T20:18:52.608Z,0.88
2023-01-07T20:21:21.897Z,0.64
2023-01-07T20:23:49.062Z,0.58
2023-01-07T20:26:18.638Z,0.60
2023-01-07T20:28:45.663Z,0.70
2023-01-07T20:31:14.644Z,0.74
2023-01-07T20:33:42.402Z,0.73
2023-01-07T20:36:11.915Z,0.77
2023-01-07T20:38:39.505Z,0.72
2023-01-07T20:41:08.360Z,0.66
2023-01-07T20:43:36.115Z,0.75
2023-01-07T20:46:04.671Z,0.82
2023-01-07T20:48:31.874Z,0.86
2023-01-07T20:50:58.724Z,0.84
2023-01-07T20:53:28.487Z,0.69
2023-01-07T20:55:59.541Z,0.69
2023-01-07T20:58:29.727Z,0.65
2023-01-07T21:00:56.468Z,0.63
2023-01-07T21:03:23.176Z,0.68
2023-01-07T21:05:49.843Z,0.65
2023-01-07T21:08:16.429Z,0.63
2023-01-07T21:10:43.784Z,0.63
2023-01-07T21:13:10.356Z,0.61
2023-01-07T21:15:38.532Z,0.54
2023-01-07T21:18:05.128Z,0.47
2023-01-07T21:20:31.883Z,0.47
2023-01-07T21:22:58.519Z,0.54
2023-01-07T21:25:25.068Z,0.57
2023-01-07T21:27:51.740Z,0.57
2023-01-07T21:30:19.401Z,0.44
2023-01-07T21:32:47.291Z,0.54
2023-01-07T21:35:14.763Z,0.51
2023-01-07T21:37:41.387Z,0.46
2023-01-07T21:40:08.501Z,0.46
2023-01-07T21:42:36.466Z,0.42
2023-01-07T21:45:03.351Z,0.42
2023-01-07T21:47:30.117Z,0.24
2023-01-07T21:49:56.928Z,-0.09
2023-01-07T21:52:23.611Z,-0.05
2023-01-07T21:54:51.926Z,-0.02
2023-01-07T21:57:19.620Z,0.04
2023-01-07T21:59:46.371Z,0.09
2023-01-07T22:02:13.795Z,0.11
2023-01-07T22:04:40.895Z,0.11
2023-01-07T22:07:14.081Z,0.06
2023-01-07T22:09:40.848Z,0.04
2023-01-07T22:12:08.710Z,-0.08
2023-01-07T22:14:35.268Z,-0.01
2023-01-07T22:17:01.969Z,-0.03
2023-01-07T22:19:28.703Z,-0.05
2023-01-07T22:21:55.424Z,-0.06
2023-01-07T22:24:22.117Z,-0.07
2023-01-07T22:26:48.804Z,-0.11
2023-01-07T22:29:16.413Z,-0.11
2023-01-07T22:31:43.130Z,-0.22
2023-01-07T22:34:10.332Z,-0.18
2023-01-07T22:36:42.224Z,-0.19
2023-01-07T22:39:18.119Z,-0.19
2023-01-07T22:41:45.949Z,-0.20
2023-01-07T22:44:22.075Z,-0.29
2023-01-07T22:46:50.965Z,-0.31
2023-01-07T22:49:18.899Z,-0.33
2023-01-07T22:51:48.389Z,-0.32
2023-01-07T22:54:16.283Z,-0.31
2023-01-07T22:56:44.208Z,-0.31
2023-01-07T22:59:10.812Z,-0.34
2023-01-07T23:01:38.249Z,-0.35
2023-01-07T23:04:05.272Z,-0.45
2023-01-07T23:06:31.926Z,-0.52
2023-01-07T23:08:58.610Z,-0.51
2023-01-07T23:11:43.808Z,-0.45
2023-01-07T23:14:10.486Z,-0.43
2023-01-07T23:16:37.644Z,-0.36
2023-01-07T23:19:04.490Z,-0.37
2023-01-07T23:21:34.358Z,-0.53
2023-01-07T23:24:01.029Z,-0.51
2023-01-07T23:26:27.588Z,-0.56
2023-01-07T23:28:54.476Z,-0.67
2023-01-07T23:31:21.175Z,-0.73
2023-01-07T23:33:47.807Z,-0.72
2023-01-07T23:36:14.436Z,-0.69
2023-01-07T23:38:41.032Z,-0.70
2023-01-07T23:41:09.517Z,-0.65
2023-01-07T23:43:36.555Z,-0.67
2023-01-07T23:46:05.931Z,-0.67
2023-01-07T23:48:34.919Z,-0.64
2023-01-07T23:51:13.813Z,-0.71
2023-01-07T23:53:40.714Z,-0.76
2023-01-07T23:56:08.197Z,-0.76
2023-01-07T23:58:35.663Z,-0.86
